CheckWX is a tool to help pilots better visualize weather data.  It is not intended as a substitute for an official pre-flight weather briefing.

21:45:44 UTC

SBFZ TAF
Pinto Martins International Airport
Fortaleza, Brazil
TAF SBFZ 201600Z 2018/2118 03005KT 9999 SCT025 FEW030TCU TN24/2106Z TX30/2114Z BECMG 2019/2021 18003KT SCT020 BECMG 2023/2101 24003KT CAVOK BECMG 2103/2105 9999 SCT017 BECMG 2107/2108 5000 BR SCT020 BECMG 2110/2112 36005KT 9999 BKN020 BECMG 2114/2116 07010KT 5000 RA BKN015 FEW025TCU RMK PDY

Mar-20@
18:00 UTC

Mar-20 @ 18:00 UTC

Mar-20@
19:00 UTC

Mar-20 @ 19:00 UTC

TAF SBFZ 201600Z 2018/2118 03005KT 9999 SCT025 FEW030TCU TN24/2106Z TX30/2114Z

Expired

Wind
  • 030° at 5 KTS
Cloud Levels
  • Scattered at 2,500' AGL
  • Few at 3,000' AGL

Mar-20@
19:00 UTC

Mar-20 @ 19:00 UTC

Mar-20@
23:00 UTC

Mar-20 @ 23:00 UTC

BECMG 2019/2021 18003KT SCT020

Becoming

Becoming Conditions expected by Wed, Mar 20, 2019 @ 21:00 UTC

Wind
  • 180° at 3 KTS
Cloud Levels
  • Scattered at 2,000' AGL

Mar-20@
23:00 UTC

Mar-20 @ 23:00 UTC

Mar-21@
03:00 UTC

Mar-21 @ 03:00 UTC

BECMG 2023/2101 24003KT CAVOK

Becoming

Becoming Conditions expected by Thu, Mar 21, 2019 @ 01:00 UTC

Wind
  • 240° at 3 KTS
Conditions
No significant weather
Cloud Levels
  • No significant clouds

Mar-21@
03:00 UTC

Mar-21 @ 03:00 UTC

Mar-21@
07:00 UTC

Mar-21 @ 07:00 UTC

BECMG 2103/2105 9999 SCT017

Becoming

Becoming Conditions expected by Thu, Mar 21, 2019 @ 05:00 UTC

Wind
  • 240° at 3 KTS
Conditions
No significant weather
Cloud Levels
  • Scattered at 1,700' AGL

Mar-21@
07:00 UTC

Mar-21 @ 07:00 UTC

Mar-21@
10:00 UTC

Mar-21 @ 10:00 UTC

BECMG 2107/2108 5000 BR SCT020

Becoming

Becoming Conditions expected by Thu, Mar 21, 2019 @ 08:00 UTC

Wind
  • 240° at 3 KTS
Conditions
Mist
Cloud Levels
  • Scattered at 2,000' AGL

Mar-21@
10:00 UTC

Mar-21 @ 10:00 UTC

Mar-21@
14:00 UTC

Mar-21 @ 14:00 UTC

BECMG 2110/2112 36005KT 9999 BKN020

Becoming

Becoming Conditions expected by Thu, Mar 21, 2019 @ 12:00 UTC

Wind
  • 360° at 5 KTS
Conditions
Mist
Cloud Levels
  • Broken at 2,000' AGL

Mar-21@
14:00 UTC

Mar-21 @ 14:00 UTC

Mar-21@
18:00 UTC

Mar-21 @ 18:00 UTC

BECMG 2114/2116 07010KT 5000 RA BKN015 FEW025TCU RMK PDY

Becoming

Becoming Conditions expected by Thu, Mar 21, 2019 @ 16:00 UTC

Wind
  • 070° at 10 KTS
Conditions
Rain
Cloud Levels
  • Broken at 1,500' AGL
  • Few at 2,500' AGL